Time;durP1;ratioP1;P1;durP2;ratioP2;P2;SDS_P1;SDS_P2;PMS_P1;PMS_P2;Temp;Humidity;BMP_temperature;BMP_pressure;BME280_temperature;BME280_humidity;BME280_pressure;Samples;Min_cycle;Max_cycle;Signal;HPM_P1;HPM_P2
2022/04/19 00:01:10;;;;;;;6.70;5.43;;;;;;;9.65;64.65;100192.50;4955712;28;20117;-82
2022/04/19 00:03:37;;;;;;;8.15;5.25;;;;;;;9.51;64.63;100187.03;4948962;28;20032;-84
2022/04/19 00:06:03;;;;;;;13.95;5.00;;;;;;;9.72;63.40;100187.38;4948734;29;20086;-83
2022/04/19 00:08:29;;;;;;;8.57;5.03;;;;;;;9.72;63.19;100193.50;4945506;28;20036;-84
2022/04/19 00:10:54;;;;;;;10.25;5.88;;;;;;;9.47;64.21;100189.19;4954832;29;20508;-83
2022/04/19 00:13:20;;;;;;;11.63;6.32;;;;;;;9.53;64.06;100187.69;4941332;29;20046;-83
2022/04/19 00:15:46;;;;;;;9.32;5.65;;;;;;;9.65;62.88;100196.97;4957448;28;20086;-83
2022/04/19 00:18:13;;;;;;;11.10;5.95;;;;;;;9.75;61.84;100193.16;4947276;28;20059;-82
2022/04/19 00:20:42;;;;;;;12.52;5.53;;;;;;;9.95;61.08;100187.53;4952710;29;20078;-85
2022/04/19 00:23:15;;;;;;;8.73;5.93;;;;;;;9.40;62.99;100190.00;4942309;28;20046;-83
2022/04/19 00:25:42;;;;;;;8.65;5.72;;;;;;;9.27;63.93;100193.94;4952651;28;20077;-81
2022/04/19 00:28:08;;;;;;;8.65;5.28;;;;;;;9.01;65.21;100189.72;4961986;28;20043;-83
2022/04/19 00:30:33;;;;;;;10.80;6.25;;;;;;;9.02;65.24;100188.72;4939916;29;20031;-84
2022/04/19 00:32:59;;;;;;;13.35;5.57;;;;;;;9.05;65.12;100183.16;4940890;29;20046;-82
2022/04/19 00:35:26;;;;;;;9.23;5.25;;;;;;;9.06;64.92;100182.97;4953538;29;20079;-83
2022/04/19 00:37:52;;;;;;;11.05;5.63;;;;;;;9.16;64.40;100175.72;4966631;29;20044;-83
2022/04/19 00:40:18;;;;;;;9.23;5.00;;;;;;;9.31;63.63;100181.22;4970634;29;20059;-84
2022/04/19 00:42:43;;;;;;;7.80;5.47;;;;;;;9.50;63.18;100175.63;4959067;29;20023;-85
2022/04/19 00:45:09;;;;;;;7.57;5.47;;;;;;;9.68;62.16;100165.72;4959729;29;20046;-85
2022/04/19 00:47:34;;;;;;;11.65;6.07;;;;;;;9.62;62.91;100174.31;4941501;29;20200;-83
2022/04/19 00:50:06;;;;;;;11.65;5.78;;;;;;;9.74;62.66;100175.63;4938022;29;20134;-83
2022/04/19 00:52:35;;;;;;;11.65;5.95;;;;;;;9.77;62.15;100169.19;4937900;29;20122;-89
2022/04/19 00:55:03;;;;;;;7.70;5.07;;;;;;;10.05;61.24;100178.44;4938333;29;20102;-90
2022/04/19 00:57:34;;;;;;;9.10;5.40;;;;;;;9.59;62.18;100179.94;4922989;29;20118;-88
2022/04/19 00:59:59;;;;;;;8.90;5.63;;;;;;;9.51;63.22;100173.81;4939735;29;20103;-89
2022/04/19 01:02:26;;;;;;;11.02;5.07;;;;;;;9.16;64.78;100175.72;4954491;29;20035;-88
2022/04/19 01:04:55;;;;;;;8.77;5.38;;;;;;;9.20;64.80;100171.78;4954005;29;20074;-89
2022/04/19 01:07:24;;;;;;;13.38;5.18;;;;;;;8.95;66.30;100166.59;4954110;29;20043;-87
2022/04/19 01:09:54;;;;;;;9.88;5.75;;;;;;;8.98;66.25;100163.63;4953980;29;20055;-89
2022/04/19 01:15:10;;;;;;;10.73;5.85;;;;;;;8.92;66.45;100166.88;4937859;29;20517;-87
2022/04/19 01:17:57;;;;;;;10.48;5.57;;;;;;;8.76;67.13;100157.91;4938496;29;20058;-88
2022/04/19 01:20:23;;;;;;;10.35;5.95;;;;;;;8.78;67.87;100163.88;4953540;29;20102;-88
2022/04/19 01:22:50;;;;;;;9.45;5.40;;;;;;;8.74;67.77;100164.34;4937264;29;20074;-88
2022/04/19 01:25:20;;;;;;;10.20;5.50;;;;;;;8.78;67.68;100161.22;4953285;29;20040;-88
2022/04/19 01:27:47;;;;;;;10.70;5.50;;;;;;;9.05;66.10;100167.28;4952424;29;20040;-88
2022/04/19 01:30:15;;;;;;;8.07;5.07;;;;;;;8.90;66.49;100163.59;4952732;29;20383;-88
2022/04/19 01:32:43;;;;;;;10.07;5.97;;;;;;;9.03;66.23;100158.66;4938836;29;20031;-86
2022/04/19 01:35:17;;;;;;;9.30;5.75;;;;;;;9.12;66.07;100157.69;4937228;29;20035;-88
2022/04/19 01:37:50;;;;;;;15.20;6.25;;;;;;;8.98;66.57;100160.97;4954207;29;20123;-88
2022/04/19 01:40:22;;;;;;;8.82;5.85;;;;;;;8.68;68.38;100155.22;4953072;29;20071;-87
2022/04/19 01:42:53;;;;;;;12.88;5.72;;;;;;;8.65;68.76;100155.56;4952735;29;20086;-86
2022/04/19 01:45:23;;;;;;;6.15;4.15;;;;;;;8.75;67.90;100156.25;4953528;29;20039;-89
2022/04/19 01:47:51;;;;;;;7.55;5.72;;;;;;;9.08;65.92;100156.38;4938376;29;20043;-88
2022/04/19 01:50:18;;;;;;;11.30;5.85;;;;;;;8.69;67.70;100156.06;4953908;29;20133;-87
2022/04/19 01:52:45;;;;;;;7.68;5.55;;;;;;;8.78;67.75;100161.22;4939301;29;20071;-86
2022/04/19 01:55:18;;;;;;;14.23;5.78;;;;;;;8.70;68.09;100153.28;4938420;29;20044;-89
2022/04/19 01:57:47;;;;;;;10.38;5.70;;;;;;;8.61;68.93;100164.81;4953438;29;20419;-85
2022/04/19 02:00:14;;;;;;;10.80;5.75;;;;;;;8.85;67.31;100155.31;4954048;28;20477;-86
2022/04/19 02:02:46;;;;;;;10.45;5.15;;;;;;;8.81;67.75;100160.94;4942541;29;20036;-86
2022/04/19 02:05:19;;;;;;;8.10;5.65;;;;;;;8.87;67.36;100163.91;4959362;29;20059;-86
2022/04/19 02:07:46;;;;;;;10.75;6.05;;;;;;;8.64;68.47;100161.84;4942202;29;20055;-86
2022/04/19 02:10:14;;;;;;;8.05;5.72;;;;;;;8.82;67.45;100156.44;4936034;29;20036;-88
2022/04/19 02:12:40;;;;;;;10.57;5.35;;;;;;;8.91;67.01;100160.78;4937965;29;20442;-87
2022/04/19 02:15:29;;;;;;;10.93;6.05;;;;;;;8.73;67.39;100162.69;4937740;29;20067;-90
2022/04/19 02:17:58;;;;;;;8.27;5.72;;;;;;;8.32;69.81;100152.94;4953692;29;20094;-88
2022/04/19 02:20:25;;;;;;;9.35;5.22;;;;;;;8.10;69.79;100151.59;4952098;29;20394;-87
2022/04/19 02:22:51;;;;;;;10.23;5.72;;;;;;;8.12;69.73;100158.38;4936877;29;20039;-86
2022/04/19 02:25:17;;;;;;;9.05;6.00;;;;;;;7.89;70.96;100159.84;4936453;29;20086;-85
2022/04/19 02:27:43;;;;;;;13.45;5.55;;;;;;;7.96;71.38;100152.16;4922476;29;20042;-87
2022/04/19 02:30:14;;;;;;;11.35;5.82;;;;;;;7.86;71.98;100148.78;4951632;29;20046;-85
2022/04/19 02:32:48;;;;;;;9.98;6.22;;;;;;;7.75;73.09;100153.34;4953573;29;20036;-86
2022/04/19 02:35:17;;;;;;;12.18;5.93;;;;;;;7.64;73.66;100150.09;4936590;29;20043;-88
2022/04/19 02:37:51;;;;;;;14.80;6.30;;;;;;;7.60;74.34;100148.75;4919643;29;20187;-84
2022/04/19 02:40:21;;;;;;;13.10;6.60;;;;;;;7.47;74.88;100150.94;4935560;29;20130;-85
2022/04/19 02:42:51;;;;;;;9.43;6.10;;;;;;;7.41;75.56;100152.38;4952819;29;20043;-86
2022/04/19 02:45:21;;;;;;;13.40;6.47;;;;;;;7.47;74.77;100157.03;4936364;29;20036;-86
2022/04/19 02:48:08;;;;;;;9.18;6.45;;;;;;;7.64;74.78;100158.84;4935262;29;20047;-86
2022/04/19 02:50:45;;;;;;;8.52;5.47;;;;;;;7.67;74.55;100158.53;4934772;29;20083;-85
2022/04/19 02:53:11;;;;;;;15.00;6.75;;;;;;;7.71;74.25;100157.25;4951431;29;20442;-87
2022/04/19 02:55:38;;;;;;;12.65;6.70;;;;;;;7.49;74.53;100157.72;4950992;29;20079;-85
2022/04/19 02:58:07;;;;;;;15.30;6.65;;;;;;;7.40;75.23;100158.63;4936346;29;20040;-86
2022/04/19 03:00:35;;;;;;;10.93;6.55;;;;;;;7.46;74.91;100150.09;4936282;29;20110;-88
2022/04/19 03:03:01;;;;;;;11.20;6.70;;;;;;;7.43;75.39;100145.13;4937908;29;20091;-85
2022/04/19 03:05:27;;;;;;;12.73;6.30;;;;;;;7.40;75.20;100145.44;4934870;29;20032;-89
2022/04/19 03:07:52;;;;;;;10.27;6.18;;;;;;;7.45;75.18;100139.72;4950881;29;20510;-86
2022/04/19 03:10:18;;;;;;;10.40;6.05;;;;;;;7.47;75.10;100138.59;4950653;28;20043;-86
2022/04/19 03:12:45;;;;;;;11.25;6.43;;;;;;;7.45;74.81;100143.19;4954354;29;20067;-85
2022/04/19 03:15:18;;;;;;;9.20;6.40;;;;;;;7.46;75.38;100144.00;4955225;29;20126;-86
2022/04/19 03:17:44;;;;;;;11.32;6.75;;;;;;;7.41;75.53;100139.19;4939808;29;20044;-85
2022/04/19 03:20:11;;;;;;;13.30;6.65;;;;;;;7.57;75.11;100135.88;4940074;29;20086;-87
2022/04/19 03:28:10;;;;;;;15.35;6.60;;;;;;;7.68;73.98;100133.00;4962069;29;20068;-87
2022/04/19 03:30:37;;;;;;;13.50;6.65;;;;;;;7.46;74.97;100136.91;4966255;29;20035;-86
2022/04/19 03:33:03;;;;;;;10.55;6.43;;;;;;;7.44;74.80;100130.16;4955622;29;20047;-86
2022/04/19 03:35:29;;;;;;;11.52;6.50;;;;;;;7.27;75.78;100134.44;4955483;29;20039;-88
2022/04/19 03:37:54;;;;;;;15.57;6.30;;;;;;;7.19;76.11;100126.47;4955687;29;20027;-88
2022/04/19 03:40:20;;;;;;;10.18;6.22;;;;;;;7.27;75.64;100123.91;4955778;29;20079;-88
2022/04/19 03:42:45;;;;;;;11.55;6.53;;;;;;;7.46;74.39;100123.75;4940973;29;20083;-85
2022/04/19 03:45:11;;;;;;;9.70;6.50;;;;;;;7.46;73.75;100113.19;4955761;29;20039;-87
2022/04/19 03:47:37;;;;;;;10.90;6.00;;;;;;;7.31;75.23;100117.34;4941021;29;20034;-89
2022/04/19 03:50:07;;;;;;;17.75;6.40;;;;;;;7.06;75.36;100120.75;4941707;29;20122;-86
2022/04/19 03:52:34;;;;;;;12.88;6.38;;;;;;;6.82;75.62;100116.03;4950683;29;20036;-86
2022/04/19 03:55:06;;;;;;;11.80;6.63;;;;;;;6.62;76.86;100110.06;4947879;29;20040;-86
2022/04/19 03:57:32;;;;;;;13.60;6.18;;;;;;;6.74;75.98;100108.88;4961604;29;20032;-85
2022/04/19 03:59:57;;;;;;;11.32;6.90;;;;;;;6.57;76.47;100104.38;4959745;29;20042;-86
2022/04/19 04:02:28;;;;;;;10.05;6.30;;;;;;;6.70;76.83;100110.13;4964442;29;20048;-86
2022/04/19 04:04:54;;;;;;;10.82;6.60;;;;;;;6.77;76.27;100105.09;4958441;29;20140;-87
2022/04/19 04:07:20;;;;;;;9.90;5.97;;;;;;;6.65;76.71;100101.03;4956220;29;20494;-87
2022/04/19 04:09:45;;;;;;;12.40;6.43;;;;;;;6.67;76.72;100105.16;4956256;29;20494;-84
2022/04/19 04:12:12;;;;;;;12.10;6.72;;;;;;;6.81;75.96;100100.38;4958680;29;20027;-86
2022/04/19 04:14:43;;;;;;;10.50;6.03;;;;;;;7.07;74.00;100106.56;4955920;29;20046;-83
2022/04/19 04:17:10;;;;;;;9.18;6.45;;;;;;;6.96;74.76;100106.81;4956820;29;20134;-85
2022/04/19 04:19:35;;;;;;;9.50;6.32;;;;;;;7.03;74.58;100110.47;4954833;29;20111;-84
2022/04/19 04:22:01;;;;;;;12.27;6.45;;;;;;;6.96;75.42;100101.53;4955942;28;20142;-86
2022/04/19 04:24:28;;;;;;;8.25;6.18;;;;;;;6.90;76.31;100096.84;4940033;29;20063;-87
2022/04/19 04:26:55;;;;;;;11.18;6.38;;;;;;;6.73;77.42;100094.03;4959468;29;20046;-86
2022/04/19 04:29:23;;;;;;;12.23;6.35;;;;;;;6.61;77.95;100103.13;4943084;29;20103;-87
2022/04/19 04:31:50;;;;;;;11.05;6.97;;;;;;;6.61;77.27;100099.66;4956163;29;20059;-89
2022/04/19 04:34:17;;;;;;;10.68;6.18;;;;;;;6.72;76.73;100096.84;4958570;28;20074;-86
2022/04/19 04:36:44;;;;;;;14.45;6.25;;;;;;;6.75;77.27;100096.53;4959672;28;20048;-87
2022/04/19 04:39:17;;;;;;;;;;;;;;;7.02;75.49;100096.50;4946694;29;20035;-86
2022/04/19 04:42:06;;;;;;;12.20;7.03;;;;;;;7.36;73.81;100103.72;4925664;29;19922;-89
2022/04/19 04:44:32;;;;;;;11.13;6.32;;;;;;;7.18;73.77;100095.81;4943352;29;20043;-87
2022/04/19 04:49:42;;;;;;;12.45;6.72;;;;;;;7.36;73.29;100090.56;4948112;29;20036;-84
2022/04/19 04:52:14;;;;;;;11.38;7.05;;;;;;;7.12;75.18;100093.78;4975051;28;20023;-88
2022/04/19 04:54:42;;;;;;;10.48;6.22;;;;;;;7.09;75.21;100097.53;4958988;29;20095;-84
2022/04/19 04:57:10;;;;;;;11.07;6.47;;;;;;;7.24;74.61;100088.13;4939683;29;20103;-86
2022/04/19 04:59:36;;;;;;;11.02;6.60;;;;;;;7.08;76.20;100082.72;4954237;29;20082;-85
2022/04/19 05:02:04;;;;;;;15.05;7.07;;;;;;;7.00;78.08;100090.53;4957094;29;20039;-85
2022/04/19 05:04:32;;;;;;;10.88;6.78;;;;;;;7.01;78.83;100088.75;4960913;29;20118;-85
2022/04/19 05:06:59;;;;;;;11.38;6.88;;;;;;;7.17;78.59;100091.53;4944124;29;20027;-87
2022/04/19 05:09:28;;;;;;;17.08;7.20;;;;;;;7.38;77.60;100088.59;4961930;28;20039;-87
2022/04/19 05:11:54;;;;;;;12.48;6.65;;;;;;;7.54;76.27;100083.44;4963000;29;20040;-88
2022/04/19 05:14:29;;;;;;;14.13;6.75;;;;;;;7.45;76.37;100089.63;4960621;28;20067;-85
2022/04/19 05:16:55;;;;;;;11.05;6.25;;;;;;;7.50;76.53;100098.72;4974960;28;20521;-88
2022/04/19 05:19:24;;;;;;;12.88;6.85;;;;;;;8.03;75.67;100089.84;4960828;29;20050;-85
2022/04/19 05:21:50;;;;;;;11.88;6.80;;;;;;;8.30;71.88;100093.19;4954233;29;20024;-86
2022/04/19 05:27:04;;;;;;;12.88;6.15;;;;;;;9.57;66.73;100094.63;3075599;26;20047;-86
2022/04/19 05:29:30;;;;;;;10.57;5.88;;;;;;;9.94;63.55;100086.16;4975857;28;20082;-87
2022/04/19 05:31:56;;;;;;;11.85;6.32;;;;;;;10.18;62.04;100087.91;4959763;29;20454;-84
2022/04/19 05:34:22;;;;;;;8.88;5.53;;;;;;;10.42;61.55;100084.38;4956483;28;20082;-85
2022/04/19 05:36:47;;;;;;;8.07;5.35;;;;;;;11.36;58.37;100090.28;4958619;29;20035;-83
2022/04/19 05:39:16;;;;;;;10.95;5.93;;;;;;;10.68;60.21;100079.59;4971595;28;20042;-87
2022/04/19 05:41:43;;;;;;;8.70;5.57;;;;;;;11.32;59.00;100089.00;4977397;28;20041;-86
2022/04/19 05:44:09;;;;;;;8.20;5.25;;;;;;;12.95;53.58;100095.06;4992912;28;20050;-87
2022/04/19 05:46:36;;;;;;;11.55;5.55;;;;;;;12.13;55.32;100089.09;4988181;28;20031;-87
2022/04/19 05:49:05;;;;;;;11.68;5.85;;;;;;;11.88;55.53;100085.88;4975263;28;20046;-86
2022/04/19 05:51:33;;;;;;;13.93;5.68;;;;;;;12.38;53.69;100087.00;4975450;28;20061;-87
2022/04/19 05:54:01;;;;;;;10.05;5.40;;;;;;;13.05;52.00;100095.59;4971240;28;20128;-88
2022/04/19 05:56:27;;;;;;;14.30;5.47;;;;;;;14.11;48.73;100089.38;4959562;28;20043;-87
2022/04/19 05:58:52;;;;;;;10.50;5.78;;;;;;;13.89;49.25;100089.41;4976087;28;20039;-88
2022/04/19 06:01:22;;;;;;;16.00;5.78;;;;;;;14.70;46.42;100093.19;4961370;28;20122;-88
2022/04/19 06:06:39;;;;;;;12.85;5.40;;;;;;;14.57;48.15;100103.81;4981714;28;20501;-91
2022/04/19 06:09:06;;;;;;;10.83;4.63;;;;;;;15.38;46.65;100107.34;4981551;28;20118;-90
2022/04/19 06:11:34;;;;;;;9.30;4.78;;;;;;;15.07;46.25;100097.22;4965212;28;20142;-91
2022/04/19 06:14:00;;;;;;;10.77;5.45;;;;;;;14.49;48.98;100090.63;4997170;28;20023;-88
2022/04/19 06:16:26;;;;;;;13.45;5.13;;;;;;;15.79;45.43;100100.00;4988528;28;20045;-87
2022/04/19 06:18:54;;;;;;;6.47;4.45;;;;;;;16.74;42.28;100101.25;4975025;28;20130;-89
2022/04/19 06:21:23;;;;;;;10.98;4.75;;;;;;;17.34;41.47;100102.59;4975726;28;20072;-87
2022/04/19 06:23:50;;;;;;;8.77;4.40;;;;;;;17.30;40.76;100102.22;4977943;28;20498;-86
2022/04/19 06:26:16;;;;;;;11.77;4.90;;;;;;;17.32;40.73;100102.00;4959537;28;20097;-86
2022/04/19 06:28:46;;;;;;;14.10;4.32;;;;;;;16.88;39.95;100094.81;4967577;28;20031;-91
2022/04/19 06:31:14;;;;;;;13.93;5.13;;;;;;;17.56;38.24;100096.69;4970324;28;20043;-87
2022/04/19 06:33:43;;;;;;;8.88;5.10;;;;;;;17.07;38.15;100103.81;4974462;28;20038;-85
2022/04/19 06:36:21;;;;;;;9.35;4.35;;;;;;;16.57;38.70;100103.63;4961943;28;20497;-87
2022/04/19 06:38:56;;;;;;;9.70;4.82;;;;;;;17.07;38.37;100101.94;4975611;28;20046;-86
2022/04/19 06:41:22;;;;;;;8.70;4.40;;;;;;;17.35;37.58;100093.53;4976384;28;20046;-86
2022/04/19 06:44:08;;;;;;;12.82;4.45;;;;;;;18.81;35.17;100100.84;4982583;28;20050;-90
2022/04/19 06:46:37;;;;;;;8.70;4.50;;;;;;;18.54;34.50;100092.28;4986078;28;20039;-87
2022/04/19 06:49:05;;;;;;;6.47;4.13;;;;;;;18.26;35.52;100086.56;4983636;28;20031;-87
2022/04/19 06:51:33;;;;;;;8.73;4.10;;;;;;;19.05;34.61;100094.56;4973336;28;20075;-85
2022/04/19 06:54:00;;;;;;;10.15;4.18;;;;;;;19.04;34.45;100095.59;4986788;28;20022;-87
2022/04/19 06:56:47;;;;;;;8.68;3.40;;;;;;;19.59;32.04;100095.41;4972571;28;20043;-83
2022/04/19 06:59:13;;;;;;;13.02;4.65;;;;;;;19.22;33.16;100099.28;4980683;28;20082;-84
2022/04/19 07:02:02;;;;;;;10.50;4.25;;;;;;;18.41;33.69;100097.78;4976059;28;20074;-83
2022/04/19 07:04:34;;;;;;;12.65;4.22;;;;;;;19.68;32.14;100102.13;4973047;28;20454;-82
2022/04/19 07:07:03;;;;;;;16.20;4.22;;;;;;;20.10;32.04;100098.28;4971968;28;20035;-86
2022/04/19 07:09:32;;;;;;;9.02;3.65;;;;;;;19.57;31.52;100100.22;4967541;28;20178;-87
2022/04/19 07:11:59;;;;;;;7.72;4.18;;;;;;;19.82;31.01;100092.75;4968366;28;20046;-88
2022/04/19 07:14:29;;;;;;;8.25;4.13;;;;;;;20.59;30.18;100096.16;4972019;28;20039;-83
2022/04/19 07:16:58;;;;;;;9.23;3.90;;;;;;;18.72;31.83;100102.22;4974494;28;20081;-89
2022/04/19 07:19:26;;;;;;;10.80;3.65;;;;;;;19.10;31.13;100092.00;4972450;28;20039;-85
2022/04/19 07:27:33;;;;;;;8.98;3.63;;;;;;;19.95;30.91;100081.78;4972051;28;20532;-88
2022/04/19 07:29:59;;;;;;;7.55;3.25;;;;;;;19.23;31.24;100082.09;4972714;28;20046;-87
2022/04/19 07:32:25;;;;;;;11.10;3.83;;;;;;;19.68;30.39;100083.31;4972621;28;20035;-86
2022/04/19 07:35:02;;;;;;;4.53;3.10;;;;;;;19.68;30.29;100077.94;4975199;28;20053;-85
2022/04/19 07:37:28;;;;;;;10.32;3.60;;;;;;;20.61;29.50;100081.38;4997882;28;20094;-87
2022/04/19 07:39:57;;;;;;;8.95;3.17;;;;;;;21.31;27.47;100088.44;4970558;28;20100;-84
2022/04/19 07:42:24;;;;;;;6.05;3.30;;;;;;;21.44;27.79;100082.72;4974570;28;20034;-86
2022/04/19 07:44:55;;;;;;;8.38;3.35;;;;;;;22.16;25.86;100091.72;4975692;28;20030;-90
2022/04/19 07:47:21;;;;;;;5.18;2.90;;;;;;;21.95;25.97;100079.00;4980784;28;20054;-86
2022/04/19 07:49:49;;;;;;;6.50;2.65;;;;;;;20.61;27.40;100083.28;4981051;28;20071;-87
2022/04/19 07:52:16;;;;;;;4.13;2.42;;;;;;;20.13;28.11;100072.78;4978789;28;20062;-87
2022/04/19 07:54:43;;;;;;;5.43;2.88;;;;;;;20.31;27.51;100077.25;4977767;28;20566;-85
2022/04/19 07:57:09;;;;;;;4.97;2.78;;;;;;;20.48;26.77;100070.88;4980586;28;20118;-88
2022/04/19 07:59:35;;;;;;;4.53;2.30;;;;;;;20.00;27.07;100068.47;4983022;28;20035;-90
2022/04/19 08:02:01;;;;;;;4.22;2.35;;;;;;;20.70;27.29;100068.38;4978901;28;20045;-88
2022/04/19 08:04:27;;;;;;;4.05;2.33;;;;;;;21.98;25.46;100071.22;4978404;28;20031;-86
2022/04/19 08:06:57;;;;;;;4.40;2.40;;;;;;;21.25;26.53;100073.19;4963848;28;20039;-90
2022/04/19 08:09:25;;;;;;;6.30;2.75;;;;;;;21.76;26.11;100067.63;4983584;28;20043;-92
2022/04/19 08:11:52;;;;;;;7.28;2.70;;;;;;;21.07;26.44;100071.53;4973278;28;20035;-87
2022/04/19 08:14:17;;;;;;;5.25;2.58;;;;;;;20.37;27.17;100060.16;4978437;28;20027;-85
2022/04/19 08:16:44;;;;;;;3.80;2.38;;;;;;;21.18;26.14;100067.19;4970607;28;20023;-88
2022/04/19 08:19:09;;;;;;;10.00;3.00;;;;;;;19.66;28.46;100058.50;4955871;28;20438;-88
2022/04/19 08:21:35;;;;;;;6.43;3.10;;;;;;;19.96;28.07;100053.84;4974279;28;20537;-84
2022/04/19 08:24:05;;;;;;;4.75;2.53;;;;;;;20.71;26.39;100051.19;4966794;28;20063;-87
2022/04/19 08:26:31;;;;;;;6.25;3.17;;;;;;;21.27;25.82;100049.53;4972555;28;20441;-87
2022/04/19 08:29:23;;;;;;;8.40;3.40;;;;;;;22.17;24.93;100047.50;4978821;28;20049;-89
2022/04/19 08:31:50;;;;;;;8.82;3.13;;;;;;;22.51;24.37;100045.47;4982980;28;20027;-91
2022/04/19 08:34:18;;;;;;;7.13;3.10;;;;;;;22.05;24.87;100042.19;4974745;28;20042;-87
2022/04/19 08:36:43;;;;;;;5.72;3.08;;;;;;;22.04;25.05;100040.53;4976048;28;20035;-86
2022/04/19 08:39:09;;;;;;;7.43;3.40;;;;;;;23.04;24.16;100042.88;4975082;28;20038;-87
2022/04/19 08:41:37;;;;;;;7.47;3.58;;;;;;;22.33;23.52;100029.59;4960380;28;20022;-85
2022/04/19 08:44:04;;;;;;;5.63;3.00;;;;;;;22.07;23.77;100031.16;4960946;28;20031;-88
2022/04/19 08:46:31;;;;;;;5.97;2.72;;;;;;;21.97;24.19;100034.53;4973542;28;20494;-85
2022/04/19 08:49:05;;;;;;;5.78;2.28;;;;;;;21.26;24.83;100037.13;4973843;28;20043;-84
2022/04/19 08:51:34;;;;;;;4.25;2.33;;;;;;;21.97;23.13;100029.13;4972541;28;20030;-88
2022/04/19 08:59:32;;;;;;;4.10;3.05;;;;;;;23.08;24.36;100030.47;4978645;28;20047;-87
2022/04/19 09:02:23;;;;;;;6.68;3.33;;;;;;;24.24;24.04;100027.06;5052701;23;20074;-81
2022/04/19 09:04:52;;;;;;;4.03;3.05;;;;;;;22.97;25.31;100034.16;4947400;29;20106;-84
2022/04/19 09:07:20;;;;;;;6.28;3.55;;;;;;;22.82;25.19;100025.06;4954370;29;20100;-82
2022/04/19 09:10:03;;;;;;;5.80;3.08;;;;;;;22.36;25.79;100026.41;4966742;28;20046;-82
2022/04/19 09:12:29;;;;;;;6.00;3.20;;;;;;;22.34;26.20;100020.44;4971626;29;20063;-79
2022/04/19 09:15:14;;;;;;;5.57;3.25;;;;;;;22.51;25.46;100021.16;4956287;29;20059;-84
2022/04/19 09:20:52;;;;;;;7.95;3.67;;;;;;;22.17;26.30;100018.59;4964933;29;20144;-81
2022/04/19 09:23:40;;;;;;;6.35;3.70;;;;;;;22.95;24.92;100020.06;4969605;29;20036;-81
2022/04/19 09:26:10;;;;;;;5.25;3.33;;;;;;;22.35;25.59;100013.94;4963824;29;20455;-83
2022/04/19 09:28:38;;;;;;;5.80;3.95;;;;;;;22.71;26.18;100007.09;4969896;29;20043;-79
2022/04/19 09:31:18;;;;;;;6.95;3.75;;;;;;;22.49;26.20;100004.41;4969766;23;20102;-79
2022/04/19 09:33:58;;;;;;;8.63;3.45;;;;;;;22.72;26.43;99997.94;4958624;28;20057;-79
2022/04/19 09:36:30;;;;;;;9.10;3.45;;;;;;;22.80;25.62;99995.63;4964228;28;20027;-82
2022/04/19 09:38:59;;;;;;;5.22;3.08;;;;;;;22.31;25.62;100002.00;4954731;29;20027;-82
2022/04/19 09:41:32;;;;;;;4.97;3.58;;;;;;;22.17;26.00;99995.38;4949111;29;20050;-79
2022/04/19 09:44:11;;;;;;;7.13;3.25;;;;;;;21.83;26.81;99995.44;4949748;29;20035;-80
2022/04/19 09:46:36;;;;;;;5.82;3.35;;;;;;;22.12;26.33;99991.53;4968846;28;20040;-77
2022/04/19 09:49:02;;;;;;;9.18;3.90;;;;;;;22.13;26.87;99985.09;4955110;29;20050;-80
2022/04/19 09:51:35;;;;;;;7.50;3.60;;;;;;;22.05;26.83;99988.19;4948286;29;20039;-82
2022/04/19 09:54:06;;;;;;;7.78;3.55;;;;;;;22.07;26.30;99980.66;4962476;29;20040;-80
2022/04/19 09:56:38;;;;;;;4.72;2.88;;;;;;;22.98;25.80;99972.78;4957905;28;20046;-82
2022/04/19 09:59:05;;;;;;;;;;;;;;;23.15;25.89;99968.09;4965769;28;20039;-82
2022/04/19 10:10:26;;;;;;;6.05;3.58;;;;;;;22.65;27.00;99955.69;4954105;29;20047;-87
2022/04/19 10:12:53;;;;;;;6.93;3.28;;;;;;;23.41;25.57;99950.19;4947486;29;20035;-82
2022/04/19 10:15:20;;;;;;;14.30;3.80;;;;;;;23.45;25.34;99935.09;4949081;29;20106;-80
2022/04/19 10:20:36;;;;;;;6.90;3.75;;;;;;;23.03;25.91;99935.03;4583597;23;20032;-86
2022/04/19 10:23:10;;;;;;;10.48;3.63;;;;;;;23.29;24.82;99936.03;4939864;28;20059;-85
2022/04/19 10:25:40;;;;;;;5.70;3.05;;;;;;;23.36;24.51;99934.75;4986110;28;20111;-81
2022/04/19 10:28:07;;;;;;;9.85;3.90;;;;;;;23.70;25.65;99924.41;4960049;29;20062;-83
2022/04/19 10:30:37;;;;;;;9.45;4.32;;;;;;;24.07;27.33;99919.72;4973610;29;20034;-86
2022/04/19 10:36:20;;;;;;;4.93;3.33;;;;;;;25.01;24.54;99929.47;4956476;23;20046;-86
2022/04/19 10:39:06;;;;;;;6.85;3.05;;;;;;;24.78;22.73;99925.34;4952041;29;20059;-87
2022/04/19 10:41:57;;;;;;;6.07;3.03;;;;;;;24.54;22.01;99924.22;4960683;29;20059;-88
2022/04/19 10:44:39;;;;;;;4.78;2.97;;;;;;;24.10;22.49;99913.78;4971093;29;20047;-86
2022/04/19 10:47:05;;;;;;;9.25;3.38;;;;;;;24.51;22.28;99909.31;4973918;28;20070;-83
2022/04/19 10:49:36;;;;;;;6.70;3.53;;;;;;;24.12;22.92;99908.94;4976246;28;20045;-87
2022/04/19 10:52:37;;;;;;;8.50;3.40;;;;;;;24.29;22.05;99907.91;4978583;28;20103;-87
2022/04/19 10:55:10;;;;;;;5.28;3.70;;;;;;;23.34;22.78;99904.41;5058226;23;20039;-86
2022/04/19 10:58:18;;;;;;;6.55;3.88;;;;;;;24.84;22.88;99902.63;4979122;28;20059;-87
2022/04/19 11:01:27;;;;;;;4.35;3.13;;;;;;;25.23;21.96;99904.75;4979021;28;20035;-87
2022/04/19 11:06:54;;;;;;;13.47;4.37;;;;;;;25.95;24.09;99886.13;1399622;23;20460;-91
2022/04/19 11:09:26;;;;;;;5.05;3.85;;;;;;;26.67;20.70;99876.53;4961101;28;20035;-88
2022/04/19 11:12:23;;;;;;;6.47;4.18;;;;;;;26.19;20.79;99880.91;4958829;29;20039;-85
2022/04/19 11:14:49;;;;;;;10.00;4.45;;;;;;;26.06;21.84;99876.88;4948399;29;20047;-88
2022/04/19 11:17:28;;;;;;;5.38;3.90;;;;;;;25.51;21.54;99879.78;4951784;29;20043;-89
2022/04/19 11:20:10;;;;;;;5.65;3.78;;;;;;;24.22;22.94;99869.44;4969177;29;20154;-92
2022/04/19 11:22:51;;;;;;;8.48;3.80;;;;;;;24.56;22.95;99867.88;4966328;29;20036;-88
2022/04/19 11:25:40;;;;;;;8.47;4.73;;;;;;;24.88;22.44;99862.22;4964319;28;20039;-87
2022/04/19 11:28:09;;;;;;;7.30;4.18;;;;;;;25.57;21.67;99865.13;4968914;29;20062;-87
2022/04/19 11:30:36;;;;;;;6.78;4.32;;;;;;;24.81;22.20;99858.94;4963126;29;20035;-86
2022/04/19 11:33:02;;;;;;;11.20;4.47;;;;;;;24.85;23.46;99863.59;4952816;29;20054;-88
2022/04/19 11:35:32;;;;;;;7.15;3.95;;;;;;;25.36;24.00;99845.34;4938518;29;20028;-87
2022/04/19 11:49:02;;;;;;;11.50;4.78;;;;;;;22.89;25.41;99820.31;4943217;29;20078;-89
2022/04/19 11:51:32;;;;;;;10.10;5.05;;;;;;;22.04;26.30;99827.34;4961454;23;20094;-91
2022/04/19 11:53:59;;;;;;;10.07;5.15;;;;;;;21.71;26.68;99819.38;4955513;29;20043;-87
2022/04/19 11:56:43;;;;;;;11.73;4.80;;;;;;;21.04;28.74;99811.47;4949161;29;20031;-85
2022/04/19 11:59:13;;;;;;;8.05;4.60;;;;;;;21.32;28.38;99804.31;4932979;29;20067;-88
2022/04/19 12:01:49;;;;;;;14.43;5.22;;;;;;;21.06;28.66;99798.56;4913182;29;20043;-87
2022/04/19 12:04:48;;;;;;;12.20;5.38;;;;;;;20.98;28.70;99804.34;4950813;29;20054;-87
2022/04/19 12:07:33;;;;;;;7.70;5.28;;;;;;;20.87;28.63;99796.38;4978109;23;20052;-85
2022/04/19 12:10:03;;;;;;;9.90;5.38;;;;;;;20.65;28.89;99792.81;4974536;29;20031;-87
2022/04/19 12:12:48;;;;;;;7.65;5.22;;;;;;;19.91;29.89;99798.22;4981146;28;20031;-86
2022/04/19 12:15:43;;;;;;;10.88;5.82;;;;;;;19.94;30.24;99789.66;4962508;29;20035;-86
2022/04/19 12:18:10;;;;;;;10.38;5.00;;;;;;;20.20;30.52;99784.75;4967343;29;20043;-85
2022/04/19 12:20:51;;;;;;;12.13;6.47;;;;;;;20.37;29.38;99780.22;4974808;29;20047;-85
2022/04/19 12:23:21;;;;;;;9.80;5.60;;;;;;;20.50;29.84;99771.81;4978575;28;20075;-87
2022/04/19 12:26:11;;;;;;;13.23;5.65;;;;;;;20.64;29.82;99767.75;4975742;29;20045;-89
2022/04/19 12:29:07;;;;;;;8.55;5.43;;;;;;;20.59;30.16;99763.09;4967048;28;20091;-89
2022/04/19 12:32:00;;;;;;;10.65;6.00;;;;;;;20.58;30.14;99764.16;4964017;29;20071;-89
2022/04/19 12:34:36;;;;;;;;;;;;;;;20.50;30.05;99758.38;4950258;29;20059;-89
2022/04/19 12:37:16;;;;;;;11.50;6.13;;;;;;;20.49;30.10;99749.47;4960427;29;19922;-89
2022/04/19 12:40:02;;;;;;;11.63;5.60;;;;;;;20.47;30.58;99748.09;4967243;29;20039;-89
2022/04/19 12:42:29;;;;;;;9.93;5.72;;;;;;;20.73;30.14;99744.72;4978868;28;20093;-83